Time;durP1;ratioP1;P1;durP2;ratioP2;P2;SDS_P1;SDS_P2;PMS_P1;PMS_P2;Temp;Humidity;BMP_temperature;BMP_pressure;BME280_temperature;BME280_humidity;BME280_pressure;Samples;Min_cycle;Max_cycle;Signal;HPM_P1;HPM_P2
2022/01/28 00:01:08;;;;;;;19.75;18.35;;;;;;;;;;5113935;28;20220;-82
2022/01/28 00:03:36;;;;;;;20.40;18.60;;;;;;;;;;5113618;28;20189;-83
2022/01/28 00:06:05;;;;;;;19.67;17.75;;;;;;;;;;5113626;28;20190;-82
2022/01/28 00:08:33;;;;;;;19.67;17.95;;;;;;;;;;5113727;28;20191;-82
2022/01/28 00:11:00;;;;;;;21.75;19.58;;;;;;;;;;5113408;28;20223;-82
2022/01/28 00:13:33;;;;;;;20.50;18.77;;;;;;;;;;5113443;28;20195;-83
2022/01/28 00:16:37;;;;;;;20.85;19.05;;;;;;;;;;5113235;28;20204;-82
2022/01/28 00:19:58;;;;;;;22.05;20.02;;;;;;;;;;5113312;28;20661;-82
2022/01/28 00:38:47;;;;;;;20.60;18.80;;;;;;;;;;5115309;28;20191;-83
2022/01/28 00:41:15;;;;;;;19.17;17.75;;;;;;;;;;5116403;28;20232;-82
2022/01/28 00:43:43;;;;;;;20.73;19.05;;;;;;;;;;5115690;28;20563;-83
2022/01/28 00:46:10;;;;;;;21.73;18.65;;;;;;;;;;5115407;28;20198;-82
2022/01/28 00:48:38;;;;;;;23.83;18.70;;;;;;;;;;5113362;28;20193;-82
2022/01/28 00:51:07;;;;;;;19.73;17.92;;;;;;;;;;5114666;28;20184;-82
2022/01/28 00:53:34;;;;;;;22.73;18.92;;;;;;;;;;5113466;28;20256;-83
2022/01/28 00:56:02;;;;;;;22.08;18.63;;;;;;;;;;5115440;28;20695;-82
2022/01/28 00:58:29;;;;;;;20.50;18.80;;;;;;;;;;5115089;28;20203;-82
2022/01/28 01:00:56;;;;;;;21.38;19.27;;;;;;;;;;5116148;28;20221;-82
2022/01/28 01:03:24;;;;;;;21.48;19.05;;;;;;;;;;5119970;28;20659;-83
2022/01/28 01:05:51;;;;;;;21.15;19.00;;;;;;;;;;5123472;28;20191;-83
2022/01/28 01:08:20;;;;;;;21.73;18.83;;;;;;;;;;5114001;28;20195;-82
2022/01/28 01:10:49;;;;;;;18.73;17.55;;;;;;;;;;5115735;28;20226;-83
2022/01/28 01:13:17;;;;;;;19.73;17.88;;;;;;;;;;5115787;28;20213;-82
2022/01/28 01:15:48;;;;;;;21.38;19.55;;;;;;;;;;5113411;28;20191;-82
2022/01/28 01:18:21;;;;;;;21.33;19.52;;;;;;;;;;5113658;28;20204;-83
2022/01/28 01:21:04;;;;;;;20.15;18.50;;;;;;;;;;5114131;28;20284;-83
2022/01/28 01:23:36;;;;;;;20.50;18.60;;;;;;;;;;5113865;28;20195;-83
2022/01/28 01:26:09;;;;;;;20.73;18.77;;;;;;;;;;5115098;28;20194;-83
2022/01/28 01:28:38;;;;;;;21.45;19.20;;;;;;;;;;5118250;28;20622;-82
2022/01/28 01:31:08;;;;;;;22.77;20.55;;;;;;;;;;5117889;28;20202;-82
2022/01/28 01:33:40;;;;;;;20.73;18.52;;;;;;;;;;5118184;28;20188;-82
2022/01/28 01:36:07;;;;;;;20.23;18.60;;;;;;;;;;5117865;28;20281;-82
2022/01/28 01:38:38;;;;;;;20.27;18.70;;;;;;;;;;5119052;28;20185;-83
2022/01/28 01:41:10;;;;;;;21.17;19.15;;;;;;;;;;5117486;28;20709;-83
2022/01/28 01:43:51;;;;;;;21.58;19.60;;;;;;;;;;5121789;28;20189;-82
2022/01/28 01:46:26;;;;;;;20.48;18.60;;;;;;;;;;5120079;28;20200;-83
2022/01/28 01:54:25;;;;;;;24.25;18.65;;;;;;;;;;5122765;28;20194;-83
2022/01/28 01:56:52;;;;;;;20.08;18.08;;;;;;;;;;5118458;28;20200;-82
2022/01/28 01:59:19;;;;;;;19.40;18.30;;;;;;;;;;5118784;28;20185;-82
2022/01/28 02:01:47;;;;;;;20.35;18.75;;;;;;;;;;5123092;28;20248;-83
2022/01/28 02:04:14;;;;;;;19.55;18.00;;;;;;;;;;5116745;28;20589;-83
2022/01/28 02:06:42;;;;;;;19.35;17.52;;;;;;;;;;5118875;28;20607;-83
2022/01/28 02:09:10;;;;;;;20.05;18.42;;;;;;;;;;5117423;28;20194;-82
2022/01/28 02:11:41;;;;;;;19.50;17.88;;;;;;;;;;5117155;28;20672;-83
2022/01/28 02:14:08;;;;;;;20.33;18.40;;;;;;;;;;5117231;28;20212;-83
2022/01/28 02:16:35;;;;;;;19.83;18.15;;;;;;;;;;5117217;28;20212;-82
2022/01/28 02:19:03;;;;;;;20.40;18.65;;;;;;;;;;5097774;28;20246;-83
2022/01/28 02:21:39;;;;;;;20.17;18.42;;;;;;;;;;5116038;28;20604;-83
2022/01/28 02:24:08;;;;;;;21.45;19.38;;;;;;;;;;5115923;28;20198;-83
2022/01/28 02:26:37;;;;;;;20.92;19.08;;;;;;;;;;5116288;28;20205;-83
2022/01/28 02:29:10;;;;;;;20.38;18.17;;;;;;;;;;5115835;28;20587;-82
2022/01/28 02:31:38;;;;;;;20.30;18.17;;;;;;;;;;5115793;28;20188;-83
2022/01/28 02:34:09;;;;;;;19.58;17.67;;;;;;;;;;5115511;28;20192;-83
2022/01/28 02:36:38;;;;;;;22.35;18.95;;;;;;;;;;5116685;28;20226;-83
2022/01/28 02:39:06;;;;;;;19.92;18.50;;;;;;;;;;5127331;28;20193;-83
2022/01/28 02:41:37;;;;;;;18.88;17.27;;;;;;;;;;5116743;28;20223;-83
2022/01/28 02:44:15;;;;;;;20.88;18.58;;;;;;;;;;5115631;28;20187;-82
2022/01/28 02:46:54;;;;;;;18.60;17.30;;;;;;;;;;5116645;28;20196;-82
2022/01/28 02:49:25;;;;;;;21.30;19.35;;;;;;;;;;5125538;28;20199;-82
2022/01/28 02:51:53;;;;;;;20.42;18.30;;;;;;;;;;5120317;28;20660;-83
2022/01/28 02:54:21;;;;;;;20.17;18.08;;;;;;;;;;5115484;28;20206;-83
2022/01/28 02:56:51;;;;;;;18.70;17.45;;;;;;;;;;5115270;28;20192;-81
2022/01/28 02:59:18;;;;;;;20.00;18.38;;;;;;;;;;5116690;28;20191;-82
2022/01/28 03:01:46;;;;;;;19.60;17.98;;;;;;;;;;5115193;28;20212;-83
2022/01/28 03:04:32;;;;;;;26.42;18.75;;;;;;;;;;5115192;28;20194;-81
2022/01/28 03:07:03;;;;;;;21.80;19.25;;;;;;;;;;5120636;28;20193;-82
2022/01/28 03:09:47;;;;;;;21.10;19.17;;;;;;;;;;5130046;28;20224;-82
2022/01/28 03:12:19;;;;;;;21.83;19.10;;;;;;;;;;5135116;28;20222;-82
2022/01/28 03:14:59;;;;;;;29.00;19.00;;;;;;;;;;5134560;28;20195;-82
2022/01/28 03:20:32;;;;;;;20.35;18.77;;;;;;;;;;5130413;28;20700;-82
2022/01/28 03:23:00;;;;;;;21.42;19.00;;;;;;;;;;5114754;28;20546;-82
2022/01/28 03:25:28;;;;;;;20.02;18.10;;;;;;;;;;5114613;28;20566;-82
2022/01/28 03:27:58;;;;;;;19.35;17.90;;;;;;;;;;5114591;28;20202;-82
2022/01/28 03:30:25;;;;;;;20.45;18.40;;;;;;;;;;5114483;28;20541;-82
2022/01/28 03:32:53;;;;;;;19.77;18.02;;;;;;;;;;5114615;28;20187;-82
2022/01/28 03:35:20;;;;;;;20.65;18.70;;;;;;;;;;5114214;28;20215;-82
2022/01/28 03:37:49;;;;;;;19.00;17.73;;;;;;;;;;5114645;28;20195;-83
2022/01/28 03:40:20;;;;;;;20.33;18.70;;;;;;;;;;5114180;28;20234;-82
2022/01/28 03:42:47;;;;;;;19.35;17.83;;;;;;;;;;5114252;28;20201;-83
2022/01/28 03:45:14;;;;;;;18.27;16.88;;;;;;;;;;5114228;28;20194;-82
2022/01/28 03:47:42;;;;;;;20.65;18.20;;;;;;;;;;5113922;28;20240;-82
2022/01/28 03:50:09;;;;;;;18.25;16.90;;;;;;;;;;5113559;28;20188;-82
2022/01/28 03:52:36;;;;;;;17.73;16.73;;;;;;;;;;5114432;28;20189;-83
2022/01/28 03:55:04;;;;;;;18.88;17.30;;;;;;;;;;5116057;28;20192;-83
2022/01/28 03:57:33;;;;;;;19.33;17.95;;;;;;;;;;5115523;28;20204;-82
2022/01/28 04:00:00;;;;;;;19.60;17.70;;;;;;;;;;5115041;28;20615;-82
2022/01/28 04:02:31;;;;;;;19.60;18.20;;;;;;;;;;5115871;28;20215;-82
2022/01/28 04:13:11;;;;;;;21.02;19.02;;;;;;;;;;5114355;28;20193;-83
2022/01/28 04:15:51;;;;;;;18.45;17.15;;;;;;;;;;5114869;28;20199;-83
2022/01/28 04:18:18;;;;;;;19.88;18.30;;;;;;;;;;5114114;28;20195;-82
2022/01/28 04:20:45;;;;;;;20.45;18.85;;;;;;;;;;5115135;28;20629;-83
2022/01/28 04:23:13;;;;;;;18.98;17.65;;;;;;;;;;5114358;28;20194;-83
2022/01/28 04:25:40;;;;;;;21.10;19.55;;;;;;;;;;5114389;28;20231;-82
2022/01/28 04:28:08;;;;;;;20.80;18.70;;;;;;;;;;5115108;28;20188;-83
2022/01/28 04:30:36;;;;;;;22.92;18.85;;;;;;;;;;5115272;28;20180;-82
2022/01/28 04:33:04;;;;;;;22.55;20.15;;;;;;;;;;5115169;28;20551;-82
2022/01/28 04:35:31;;;;;;;20.77;19.20;;;;;;;;;;5114329;28;20192;-82
2022/01/28 04:38:11;;;;;;;20.05;18.65;;;;;;;;;;5114342;28;20190;-83
2022/01/28 04:40:49;;;;;;;26.40;21.45;;;;;;;;;;5114432;28;20758;-83
2022/01/28 04:43:22;;;;;;;21.17;19.52;;;;;;;;;;5120071;28;20191;-83
2022/01/28 04:46:05;;;;;;;21.50;19.90;;;;;;;;;;5120474;28;20705;-83
2022/01/28 04:48:38;;;;;;;21.02;19.20;;;;;;;;;;5114725;28;20193;-83
2022/01/28 04:51:16;;;;;;;22.23;19.83;;;;;;;;;;5114601;28;20186;-83
2022/01/28 04:56:40;;;;;;;21.15;18.98;;;;;;;;;;5113703;28;20245;-82
2022/01/28 04:59:34;;;;;;;19.48;18.15;;;;;;;;;;5114053;28;20184;-83
2022/01/28 05:10:55;;;;;;;19.48;17.65;;;;;;;;;;5100119;28;20267;-81
2022/01/28 05:13:45;;;;;;;27.88;18.73;;;;;;;;;;5117749;28;20199;-82
2022/01/28 05:27:43;;;;;;;19.95;18.42;;;;;;;;;;4975634;28;20210;-82
2022/01/28 05:30:11;;;;;;;21.05;19.05;;;;;;;;;;4975488;28;20689;-83
2022/01/28 05:32:38;;;;;;;21.30;19.45;;;;;;;;;;4975810;28;20244;-83
2022/01/28 05:35:08;;;;;;;21.90;19.48;;;;;;;;;;4976086;28;20698;-83
2022/01/28 05:37:36;;;;;;;21.30;19.17;;;;;;;;;;4976590;28;20332;-82
2022/01/28 05:40:03;;;;;;;21.60;18.55;;;;;;;;;;4975962;28;20236;-82
2022/01/28 05:42:32;;;;;;;20.90;19.05;;;;;;;;;;4983563;28;20228;-81
2022/01/28 05:45:00;;;;;;;23.13;19.10;;;;;;;;;;4982275;28;20209;-82
2022/01/28 05:47:27;;;;;;;24.20;19.05;;;;;;;;;;4980462;28;20214;-83
2022/01/28 05:49:55;;;;;;;25.90;20.25;;;;;;;;;;4977340;28;20299;-83
2022/01/28 05:52:23;;;;;;;22.40;20.40;;;;;;;;;;4985510;28;20623;-82
2022/01/28 05:54:51;;;;;;;21.05;19.15;;;;;;;;;;5055039;28;20550;-82
2022/01/28 05:57:18;;;;;;;26.85;19.50;;;;;;;;;;5053937;28;20201;-82
2022/01/28 05:59:45;;;;;;;23.33;18.20;;;;;;;;;;5115783;28;20195;-83
2022/01/28 06:02:13;;;;;;;21.38;19.30;;;;;;;;;;5116357;28;20224;-83
2022/01/28 06:04:40;;;;;;;21.85;19.92;;;;;;;;;;5117880;28;20192;-82
2022/01/28 06:07:07;;;;;;;21.60;19.73;;;;;;;;;;5098649;28;20675;-83
2022/01/28 06:09:36;;;;;;;24.70;20.38;;;;;;;;;;5115995;28;20228;-83
2022/01/28 06:12:04;;;;;;;20.77;18.75;;;;;;;;;;5115918;28;20210;-83
2022/01/28 06:14:31;;;;;;;21.10;19.35;;;;;;;;;;5115883;28;20187;-83
2022/01/28 06:16:58;;;;;;;21.88;19.88;;;;;;;;;;5116218;28;20196;-83
2022/01/28 06:19:26;;;;;;;22.73;19.50;;;;;;;;;;5115818;28;20192;-83
2022/01/28 06:21:53;;;;;;;21.98;19.77;;;;;;;;;;5116294;28;20548;-82
2022/01/28 06:24:20;;;;;;;27.52;20.45;;;;;;;;;;5115955;28;20315;-82
2022/01/28 06:26:49;;;;;;;23.60;19.98;;;;;;;;;;5115744;28;20198;-83
2022/01/28 06:29:16;;;;;;;21.55;19.55;;;;;;;;;;5116628;28;20283;-83
2022/01/28 06:31:44;;;;;;;25.80;20.35;;;;;;;;;;5118464;28;20188;-83
2022/01/28 06:34:11;;;;;;;21.92;19.55;;;;;;;;;;5115516;28;20784;-82
2022/01/28 06:36:39;;;;;;;20.80;19.25;;;;;;;;;;5115461;28;20223;-83
2022/01/28 06:39:06;;;;;;;29.33;21.55;;;;;;;;;;5115579;28;20529;-83
2022/01/28 06:41:33;;;;;;;22.67;20.60;;;;;;;;;;5115404;28;20643;-82
2022/01/28 06:44:03;;;;;;;21.85;19.40;;;;;;;;;;5115654;28;20188;-82
2022/01/28 06:46:30;;;;;;;21.00;19.40;;;;;;;;;;5115028;28;20268;-82
2022/01/28 06:48:58;;;;;;;21.67;19.73;;;;;;;;;;5115549;28;20204;-83
2022/01/28 06:51:25;;;;;;;22.35;20.13;;;;;;;;;;5115613;28;20196;-82
2022/01/28 06:53:52;;;;;;;21.88;19.75;;;;;;;;;;5115017;28;20183;-83
2022/01/28 06:56:20;;;;;;;23.05;20.90;;;;;;;;;;5115213;28;20597;-81
2022/01/28 06:58:47;;;;;;;22.83;20.63;;;;;;;;;;5115222;28;20199;-82
2022/01/28 07:01:16;;;;;;;22.75;20.48;;;;;;;;;;5114689;28;20199;-81
2022/01/28 07:03:43;;;;;;;22.90;20.45;;;;;;;;;;5115357;28;20186;-83
2022/01/28 07:06:10;;;;;;;22.38;20.35;;;;;;;;;;5115523;28;20190;-82
2022/01/28 07:08:38;;;;;;;22.20;20.27;;;;;;;;;;5117245;28;20636;-82
2022/01/28 07:11:05;;;;;;;22.90;20.40;;;;;;;;;;5114847;28;20222;-81
2022/01/28 07:13:33;;;;;;;24.65;20.20;;;;;;;;;;5114926;28;20287;-81
2022/01/28 07:16:00;;;;;;;22.35;20.40;;;;;;;;;;5114498;28;20187;-80
2022/01/28 07:18:29;;;;;;;21.33;19.70;;;;;;;;;;5115265;28;20191;-81
2022/01/28 07:20:56;;;;;;;23.40;21.13;;;;;;;;;;5115050;28;20259;-81
2022/01/28 07:23:24;;;;;;;23.85;20.35;;;;;;;;;;5113774;28;20224;-81
2022/01/28 07:25:51;;;;;;;25.92;20.20;;;;;;;;;;5115571;28;20563;-81
2022/01/28 07:28:18;;;;;;;26.10;20.58;;;;;;;;;;5114963;28;20198;-81
2022/01/28 07:30:46;;;;;;;23.67;21.13;;;;;;;;;;5115482;28;20205;-81
2022/01/28 07:33:13;;;;;;;41.15;20.92;;;;;;;;;;5123805;28;20723;-82
2022/01/28 07:35:42;;;;;;;24.25;20.73;;;;;;;;;;5117186;28;20202;-83
2022/01/28 07:38:10;;;;;;;25.58;20.80;;;;;;;;;;5117208;28;20274;-82
2022/01/28 07:40:37;;;;;;;22.45;20.52;;;;;;;;;;5077484;28;20707;-82
2022/01/28 07:43:05;;;;;;;25.42;20.95;;;;;;;;;;5073752;28;20224;-81
2022/01/28 07:45:32;;;;;;;22.75;20.63;;;;;;;;;;5072188;28;20209;-81
2022/01/28 07:48:00;;;;;;;25.00;21.02;;;;;;;;;;5073453;28;20238;-82
2022/01/28 07:50:27;;;;;;;28.60;20.80;;;;;;;;;;5073562;28;20192;-82
2022/01/28 07:52:56;;;;;;;22.92;20.73;;;;;;;;;;5073190;28;20200;-82
2022/01/28 07:55:23;;;;;;;26.98;20.10;;;;;;;;;;5073331;28;20200;-82
2022/01/28 07:57:50;;;;;;;26.27;21.45;;;;;;;;;;5073312;28;20193;-90
2022/01/28 08:00:18;;;;;;;28.20;22.38;;;;;;;;;;5072698;28;20189;-85
2022/01/28 08:02:46;;;;;;;23.88;21.23;;;;;;;;;;5074375;28;20221;-85
2022/01/28 08:05:13;;;;;;;22.55;20.17;;;;;;;;;;5073358;28;20188;-81
2022/01/28 08:07:41;;;;;;;24.35;21.83;;;;;;;;;;5073871;28;20185;-84
2022/01/28 08:10:10;;;;;;;24.98;21.10;;;;;;;;;;5074003;28;20222;-82
2022/01/28 08:12:47;;;;;;;26.38;23.60;;;;;;;;;;5073909;28;20205;-81
2022/01/28 08:15:15;;;;;;;22.85;20.90;;;;;;;;;;5073546;28;20192;-81
2022/01/28 08:17:42;;;;;;;22.42;20.63;;;;;;;;;;5073719;28;20192;-81
2022/01/28 08:20:10;;;;;;;25.05;21.38;;;;;;;;;;5073695;28;20196;-80
2022/01/28 08:22:44;;;;;;;23.42;21.23;;;;;;;;;;5074389;28;20221;-81
2022/01/28 08:25:15;;;;;;;27.15;22.00;;;;;;;;;;5074007;28;20196;-81
2022/01/28 08:27:43;;;;;;;30.80;21.75;;;;;;;;;;5073000;28;20600;-81
2022/01/28 08:30:11;;;;;;;23.67;21.70;;;;;;;;;;5073279;28;20193;-81
2022/01/28 08:32:39;;;;;;;30.02;23.02;;;;;;;;;;5073312;28;20193;-80
2022/01/28 08:35:08;;;;;;;23.90;21.73;;;;;;;;;;5073842;28;20190;-79
2022/01/28 08:37:35;;;;;;;22.38;20.17;;;;;;;;;;5076840;28;20555;-90
2022/01/28 08:40:03;;;;;;;22.73;20.33;;;;;;;;;;5095553;28;20235;-81
2022/01/28 08:42:31;;;;;;;22.23;20.38;;;;;;;;;;5113785;28;20226;-81
2022/01/28 08:44:59;;;;;;;23.15;21.10;;;;;;;;;;5113748;28;20192;-81
2022/01/28 08:47:26;;;;;;;23.75;21.27;;;;;;;;;;5113101;28;20192;-81
2022/01/28 08:49:53;;;;;;;23.42;21.52;;;;;;;;;;5113048;28;20200;-81
2022/01/28 08:52:21;;;;;;;22.05;20.38;;;;;;;;;;5113894;28;20192;-80
2022/01/28 08:54:48;;;;;;;32.05;23.60;;;;;;;;;;5113264;28;20291;-81
2022/01/28 08:57:15;;;;;;;26.50;21.73;;;;;;;;;;5112993;28;20198;-81
2022/01/28 08:59:44;;;;;;;24.70;22.25;;;;;;;;;;5113476;28;20281;-82
2022/01/28 09:02:12;;;;;;;30.08;21.33;;;;;;;;;;5114108;28;20278;-82
2022/01/28 09:04:39;;;;;;;34.28;23.10;;;;;;;;;;5113341;28;20192;-84
2022/01/28 09:07:07;;;;;;;22.02;20.33;;;;;;;;;;5113232;28;20191;-81
2022/01/28 09:09:35;;;;;;;29.08;21.80;;;;;;;;;;5113030;28;20631;-80
2022/01/28 09:12:25;;;;;;;25.35;21.73;;;;;;;;;;5113190;28;20215;-80
2022/01/28 09:14:54;;;;;;;23.88;21.45;;;;;;;;;;5112964;28;20184;-80
2022/01/28 09:17:21;;;;;;;23.67;21.70;;;;;;;;;;5113089;28;20186;-81
2022/01/28 09:19:49;;;;;;;24.15;21.70;;;;;;;;;;5113734;28;20681;-80
2022/01/28 09:22:16;;;;;;;26.95;22.42;;;;;;;;;;5113061;28;20239;-81
2022/01/28 09:24:44;;;;;;;24.08;21.25;;;;;;;;;;5114144;28;20549;-85
2022/01/28 09:27:11;;;;;;;23.40;21.15;;;;;;;;;;5114478;28;20227;-86
2022/01/28 09:29:38;;;;;;;23.70;21.35;;;;;;;;;;5114467;28;20275;-85
2022/01/28 09:32:09;;;;;;;25.25;22.33;;;;;;;;;;5113801;28;20201;-84
2022/01/28 09:34:36;;;;;;;23.30;21.20;;;;;;;;;;5113394;28;20741;-86
2022/01/28 09:37:03;;;;;;;28.40;21.13;;;;;;;;;;5113951;28;20226;-83
2022/01/28 09:39:33;;;;;;;25.75;20.92;;;;;;;;;;5113153;28;20239;-83
2022/01/28 09:42:03;;;;;;;22.75;20.80;;;;;;;;;;5113165;28;20194;-83
2022/01/28 09:44:31;;;;;;;25.23;22.50;;;;;;;;;;5114239;28;20669;-83
2022/01/28 09:46:59;;;;;;;23.95;21.88;;;;;;;;;;5097897;28;20471;-82
2022/01/28 09:49:29;;;;;;;23.50;21.45;;;;;;;;;;5117523;28;20203;-81
2022/01/28 09:51:56;;;;;;;24.90;21.77;;;;;;;;;;5117343;28;20198;-82
2022/01/28 09:57:06;;;;;;;24.08;21.77;;;;;;;;;;5120557;28;20605;-82
2022/01/28 09:59:33;;;;;;;25.33;22.98;;;;;;;;;;5116415;28;20196;-82
2022/01/28 10:02:01;;;;;;;24.17;21.85;;;;;;;;;;5116403;28;20192;-81
2022/01/28 10:04:30;;;;;;;23.13;21.02;;;;;;;;;;5116444;28;20774;-82
2022/01/28 10:06:59;;;;;;;27.63;21.33;;;;;;;;;;5116331;28;20592;-82
2022/01/28 10:09:26;;;;;;;23.88;21.30;;;;;;;;;;5116633;28;20309;-82
2022/01/28 10:11:57;;;;;;;23.67;20.83;;;;;;;;;;5121173;28;20188;-83
2022/01/28 10:14:27;;;;;;;29.80;20.95;;;;;;;;;;5117924;28;20193;-82
2022/01/28 10:16:58;;;;;;;37.08;22.30;;;;;;;;;;5116862;28;20237;-81
2022/01/28 10:19:28;;;;;;;23.33;20.90;;;;;;;;;;5124106;28;20189;-81
2022/01/28 10:21:57;;;;;;;24.13;21.63;;;;;;;;;;5120633;28;20260;-82
2022/01/28 10:24:25;;;;;;;24.00;21.70;;;;;;;;;;5118698;28;20236;-84
2022/01/28 10:26:53;;;;;;;23.00;20.58;;;;;;;;;;5117824;28;20596;-83
2022/01/28 10:29:24;;;;;;;31.90;22.38;;;;;;;;;;5117737;28;20541;-83
2022/01/28 10:31:53;;;;;;;27.55;23.00;;;;;;;;;;5119323;28;20702;-83
2022/01/28 10:34:25;;;;;;;24.80;22.42;;;;;;;;;;5119277;28;20201;-82
2022/01/28 10:37:07;;;;;;;23.77;21.42;;;;;;;;;;5099997;28;20228;-83
2022/01/28 10:39:42;;;;;;;23.77;21.50;;;;;;;;;;5121820;28;20281;-82
2022/01/28 10:42:13;;;;;;;23.27;20.88;;;;;;;;;;5121026;28;20214;-82
2022/01/28 10:45:00;;;;;;;27.05;22.25;;;;;;;;;;5122388;28;20290;-82
2022/01/28 10:47:34;;;;;;;28.38;24.25;;;;;;;;;;5123185;28;20200;-83
2022/01/28 10:50:02;;;;;;;25.95;23.50;;;;;;;;;;5122269;28;20192;-83
2022/01/28 10:52:34;;;;;;;24.70;22.38;;;;;;;;;;5122182;28;20253;-82
2022/01/28 10:55:03;;;;;;;22.50;20.25;;;;;;;;;;5119569;28;20650;-80
2022/01/28 10:57:31;;;;;;;23.52;21.63;;;;;;;;;;5117237;28;20249;-80
2022/01/28 10:59:59;;;;;;;27.33;22.83;;;;;;;;;;5120001;28;20197;-82
2022/01/28 11:02:27;;;;;;;25.48;22.85;;;;;;;;;;5119649;28;20627;-82
2022/01/28 11:04:57;;;;;;;23.52;21.27;;;;;;;;;;5102847;28;20754;-82
2022/01/28 11:07:25;;;;;;;25.70;22.50;;;;;;;;;;5122626;28;20195;-82
2022/01/28 11:09:55;;;;;;;21.73;20.13;;;;;;;;;;5125605;28;20716;-83
2022/01/28 11:12:23;;;;;;;24.85;22.25;;;;;;;;;;5117045;28;20200;-83
2022/01/28 11:14:51;;;;;;;23.20;20.80;;;;;;;;;;5117056;28;20189;-83
2022/01/28 11:17:19;;;;;;;22.35;20.40;;;;;;;;;;5118407;28;20560;-82
2022/01/28 11:19:47;;;;;;;25.45;22.00;;;;;;;;;;5120098;28;20288;-82
2022/01/28 11:22:24;;;;;;;29.15;22.20;;;;;;;;;;5117439;28;20649;-83
2022/01/28 11:25:02;;;;;;;23.77;21.30;;;;;;;;;;5115973;28;20221;-82
2022/01/28 11:27:32;;;;;;;24.20;21.63;;;;;;;;;;5115930;28;20184;-82
2022/01/28 11:30:20;;;;;;;23.73;21.50;;;;;;;;;;5116670;28;20188;-81
2022/01/28 11:32:54;;;;;;;23.67;21.27;;;;;;;;;;5100829;28;20185;-82
2022/01/28 11:35:22;;;;;;;23.05;20.75;;;;;;;;;;5117518;28;20283;-82
2022/01/28 11:37:50;;;;;;;22.90;20.80;;;;;;;;;;5116040;28;20192;-82
2022/01/28 11:40:18;;;;;;;32.22;22.50;;;;;;;;;;5116626;28;20232;-96
2022/01/28 11:42:48;;;;;;;26.65;22.02;;;;;;;;;;5107372;28;20250;-89
2022/01/28 11:45:16;;;;;;;27.98;21.25;;;;;;;;;;5127941;28;20200;-92
2022/01/28 11:47:54;;;;;;;25.52;23.20;;;;;;;;;;5122482;28;20289;-90
2022/01/28 11:50:23;;;;;;;27.70;20.73;;;;;;;;;;5119817;28;20195;-89
2022/01/28 11:52:52;;;;;;;27.42;22.70;;;;;;;;;;5119645;28;20189;-83
2022/01/28 11:55:32;;;;;;;23.48;21.23;;;;;;;;;;5118852;28;20199;-80
2022/01/28 11:58:02;;;;;;;28.65;24.20;;;;;;;;;;5118432;28;20693;-83
2022/01/28 12:00:31;;;;;;;23.00;21.10;;;;;;;;;;5119679;28;20198;-83
2022/01/28 12:02:58;;;;;;;26.20;23.05;;;;;;;;;;5119301;28;20190;-83
2022/01/28 12:05:40;;;;;;;23.98;21.55;;;;;;;;;;5121305;28;20188;-84
2022/01/28 12:08:07;;;;;;;28.02;21.90;;;;;;;;;;5120356;28;20623;-84
2022/01/28 12:13:15;;;;;;;24.85;21.67;;;;;;;;;;5236150;22;20246;-83
2022/01/28 12:16:11;;;;;;;24.42;21.95;;;;;;;;;;5053884;28;20184;-82
2022/01/28 12:18:49;;;;;;;28.83;23.17;;;;;;;;;;5053146;28;20278;-82
2022/01/28 12:21:17;;;;;;;25.77;23.30;;;;;;;;;;5051803;28;20212;-82
2022/01/28 12:23:45;;;;;;;24.13;22.10;;;;;;;;;;5053408;28;20222;-81
2022/01/28 12:26:16;;;;;;;27.92;25.17;;;;;;;;;;5053262;28;20201;-84
2022/01/28 12:28:47;;;;;;;23.48;21.42;;;;;;;;;;5035776;28;20603;-83
2022/01/28 12:31:16;;;;;;;24.77;22.40;;;;;;;;;;5053942;28;20199;-82
2022/01/28 12:33:44;;;;;;;26.65;23.63;;;;;;;;;;5053396;28;20213;-84
2022/01/28 12:36:12;;;;;;;25.23;22.58;;;;;;;;;;5053792;28;20624;-83
2022/01/28 12:38:43;;;;;;;23.85;21.35;;;;;;;;;;5035679;28;20209;-83
2022/01/28 12:41:12;;;;;;;23.50;21.00;;;;;;;;;;5053707;28;20582;-83
2022/01/28 12:43:40;;;;;;;28.05;22.73;;;;;;;;;;5053508;28;20262;-83
2022/01/28 12:46:09;;;;;;;25.10;22.60;;;;;;;;;;5054472;28;20218;-83
2022/01/28 12:48:37;;;;;;;25.33;23.00;;;;;;;;;;5053595;28;20195;-82
2022/01/28 12:51:05;;;;;;;24.42;22.02;;;;;;;;;;5053460;28;20207;-83
2022/01/28 12:53:35;;;;;;;29.23;22.50;;;;;;;;;;5053585;28;20281;-82
2022/01/28 12:56:04;;;;;;;25.45;22.48;;;;;;;;;;5053416;28;20199;-81
2022/01/28 12:58:35;;;;;;;34.63;22.90;;;;;;;;;;5053207;28;20192;-82
2022/01/28 13:01:10;;;;;;;28.07;23.00;;;;;;;;;;5053301;28;20230;-82
2022/01/28 13:03:46;;;;;;;24.23;21.67;;;;;;;;;;5053134;28;20456;-82
2022/01/28 13:06:40;;;;;;;26.95;23.48;;;;;;;;;;5053159;28;20186;-83
2022/01/28 13:09:12;;;;;;;35.65;21.90;;;;;;;;;;5053252;28;20192;-82
2022/01/28 13:11:42;;;;;;;23.30;20.98;;;;;;;;;;5053069;28;20224;-82
2022/01/28 13:14:10;;;;;;;24.52;21.98;;;;;;;;;;5053199;28;20297;-82
2022/01/28 13:16:39;;;;;;;25.05;22.30;;;;;;;;;;5035410;28;20211;-85
2022/01/28 13:19:08;;;;;;;25.40;22.95;;;;;;;;;;5053168;28;20632;-85
2022/01/28 13:21:36;;;;;;;25.90;21.90;;;;;;;;;;5054032;28;20186;-84
2022/01/28 13:24:08;;;;;;;24.80;22.17;;;;;;;;;;5057208;28;20581;-82
2022/01/28 13:26:35;;;;;;;25.13;22.70;;;;;;;;;;5057251;28;20187;-83
2022/01/28 13:29:07;;;;;;;25.45;22.70;;;;;;;;;;5057348;28;20501;-83
2022/01/28 13:31:34;;;;;;;28.97;24.37;;;;;;;;;;5057045;28;20192;-83
2022/01/28 13:34:05;;;;;;;25.42;23.17;;;;;;;;;;5057056;28;20456;-80
2022/01/28 13:36:48;;;;;;;25.33;23.13;;;;;;;;;;5056643;28;20630;-81
2022/01/28 13:39:16;;;;;;;26.15;23.83;;;;;;;;;;5056796;28;20192;-82
2022/01/28 13:41:45;;;;;;;25.45;22.90;;;;;;;;;;5056497;28;20202;-82
2022/01/28 13:44:23;;;;;;;24.60;22.10;;;;;;;;;;5056421;28;20219;-81
2022/01/28 13:46:57;;;;;;;23.83;21.65;;;;;;;;;;5056323;28;20202;-77
2022/01/28 13:49:30;;;;;;;24.67;22.45;;;;;;;;;;5038262;28;20197;-79
2022/01/28 13:52:14;;;;;;;29.63;23.42;;;;;;;;;;5055658;28;20254;-78
2022/01/28 13:54:41;;;;;;;27.55;22.75;;;;;;;;;;5054008;28;20671;-78
2022/01/28 13:57:10;;;;;;;25.13;22.63;;;;;;;;;;5055322;28;20633;-79
2022/01/28 13:59:39;;;;;;;33.17;23.95;;;;;;;;;;5055590;28;20234;-78
2022/01/28 14:02:12;;;;;;;26.02;23.50;;;;;;;;;;5055569;28;20203;-79
2022/01/28 14:04:41;;;;;;;24.93;22.60;;;;;;;;;;5055277;28;20237;-78
2022/01/28 14:07:09;;;;;;;27.92;22.95;;;;;;;;;;5055185;28;20433;-79
2022/01/28 14:09:43;;;;;;;24.75;22.55;;;;;;;;;;5055167;28;20193;-78
2022/01/28 14:12:13;;;;;;;31.55;23.27;;;;;;;;;;5054875;28;20242;-78
2022/01/28 14:14:45;;;;;;;24.75;22.60;;;;;;;;;;5055164;28;20258;-78
2022/01/28 14:17:14;;;;;;;25.45;23.05;;;;;;;;;;5055294;28;20267;-79
2022/01/28 14:19:44;;;;;;;27.65;24.65;;;;;;;;;;5055037;28;20653;-78
2022/01/28 14:22:13;;;;;;;29.95;21.95;;;;;;;;;;5054919;28;20663;-78
2022/01/28 14:24:41;;;;;;;30.07;23.87;;;;;;;;;;5055114;28;20223;-78
2022/01/28 14:27:34;;;;;;;23.98;21.88;;;;;;;;;;5054764;28;20424;-78
2022/01/28 14:30:04;;;;;;;24.10;21.77;;;;;;;;;;5054698;28;20384;-77
2022/01/28 14:32:32;;;;;;;24.48;22.13;;;;;;;;;;5054964;28;20457;-81
2022/01/28 14:35:00;;;;;;;33.38;22.90;;;;;;;;;;5051893;28;20297;-82
2022/01/28 14:37:28;;;;;;;23.75;21.67;;;;;;;;;;5055353;28;20551;-81
2022/01/28 14:39:55;;;;;;;37.13;24.65;;;;;;;;;;5055015;28;20634;-80
2022/01/28 14:42:23;;;;;;;25.63;21.73;;;;;;;;;;5054370;28;20664;-81
2022/01/28 14:44:51;;;;;;;24.52;22.33;;;;;;;;;;5054673;28;20961;-80
2022/01/28 14:47:19;;;;;;;25.05;22.80;;;;;;;;;;5054981;28;20190;-80
2022/01/28 14:49:46;;;;;;;32.25;24.02;;;;;;;;;;5054992;28;20192;-82
2022/01/28 14:52:19;;;;;;;24.20;21.80;;;;;;;;;;5054906;28;20192;-81
2022/01/28 14:54:46;;;;;;;27.90;22.70;;;;;;;;;;5054893;28;20196;-81
2022/01/28 14:57:14;;;;;;;26.98;24.33;;;;;;;;;;5036689;28;20275;-79
2022/01/28 14:59:42;;;;;;;24.10;21.85;;;;;;;;;;5054969;28;20195;-82
2022/01/28 15:02:11;;;;;;;26.25;23.58;;;;;;;;;;5054810;28;20206;-81
2022/01/28 15:04:38;;;;;;;24.77;22.17;;;;;;;;;;5054626;28;20219;-82
2022/01/28 15:07:06;;;;;;;23.50;21.67;;;;;;;;;;5054969;28;20229;-83
2022/01/28 15:09:40;;;;;;;26.05;23.48;;;;;;;;;;5053666;28;20215;-82
2022/01/28 15:12:08;;;;;;;23.60;21.75;;;;;;;;;;5053838;28;20232;-82
2022/01/28 15:14:35;;;;;;;24.88;22.15;;;;;;;;;;5054882;28;20186;-83
2022/01/28 15:17:03;;;;;;;22.65;21.25;;;;;;;;;;5055191;28;20240;-81
2022/01/28 15:19:30;;;;;;;26.88;22.23;;;;;;;;;;5055040;28;20191;-83
2022/01/28 15:21:58;;;;;;;68.82;48.53;;;;;;;;;;5055039;28;20551;-82
2022/01/28 15:24:26;;;;;;;247.02;91.03;;;;;;;;;;5054407;28;20225;-82
2022/01/28 15:26:55;;;;;;;390.65;111.30;;;;;;;;;;5054482;28;20594;-82
2022/01/28 15:29:45;;;;;;;386.50;111.25;;;;;;;;;;5054148;28;20191;-82
2022/01/28 15:35:20;;;;;;;398.05;108.65;;;;;;;;;;5054444;28;20311;-83
2022/01/28 15:37:48;;;;;;;375.27;108.25;;;;;;;;;;5039875;28;20636;-83